sensor_id;sensor_type;location;lat;lon;timestamp;P1;durP1;ratioP1;P2;durP2;ratioP2
5951;SDS011;3001;42.622;23.194;2023-07-29T00:01:00;3.20;;;3.10;;
5951;SDS011;3001;42.622;23.194;2023-07-29T00:03:27;3.23;;;3.07;;
5951;SDS011;3001;42.622;23.194;2023-07-29T00:05:55;2.80;;;2.70;;
5951;SDS011;3001;42.622;23.194;2023-07-29T00:08:21;2.80;;;2.70;;
5951;SDS011;3001;42.622;23.194;2023-07-29T00:10:47;3.20;;;3.10;;
5951;SDS011;3001;42.622;23.194;2023-07-29T00:13:15;3.10;;;2.90;;
5951;SDS011;3001;42.622;23.194;2023-07-29T00:15:42;3.20;;;3.03;;
5951;SDS011;3001;42.622;23.194;2023-07-29T00:18:08;2.80;;;2.70;;
5951;SDS011;3001;42.622;23.194;2023-07-29T00:20:35;2.87;;;2.77;;
5951;SDS011;3001;42.622;23.194;2023-07-29T00:23:02;2.90;;;2.80;;
5951;SDS011;3001;42.622;23.194;2023-07-29T00:25:28;2.97;;;2.77;;
5951;SDS011;3001;42.622;23.194;2023-07-29T00:27:55;2.80;;;2.70;;
5951;SDS011;3001;42.622;23.194;2023-07-29T00:30:24;2.93;;;2.83;;
5951;SDS011;3001;42.622;23.194;2023-07-29T00:32:51;2.93;;;2.83;;
5951;SDS011;3001;42.622;23.194;2023-07-29T00:35:18;2.50;;;2.40;;
5951;SDS011;3001;42.622;23.194;2023-07-29T00:37:45;3.00;;;2.83;;
5951;SDS011;3001;42.622;23.194;2023-07-29T00:40:13;2.87;;;2.73;;
5951;SDS011;3001;42.622;23.194;2023-07-29T00:42:42;3.03;;;2.93;;
5951;SDS011;3001;42.622;23.194;2023-07-29T00:45:09;3.10;;;3.00;;
5951;SDS011;3001;42.622;23.194;2023-07-29T00:47:37;2.97;;;2.80;;
5951;SDS011;3001;42.622;23.194;2023-07-29T00:50:05;2.83;;;2.73;;
5951;SDS011;3001;42.622;23.194;2023-07-29T00:52:33;2.77;;;2.60;;
5951;SDS011;3001;42.622;23.194;2023-07-29T00:54:59;3.47;;;3.27;;
5951;SDS011;3001;42.622;23.194;2023-07-29T00:57:26;2.90;;;2.80;;
5951;SDS011;3001;42.622;23.194;2023-07-29T00:59:55;2.93;;;2.83;;
5951;SDS011;3001;42.622;23.194;2023-07-29T01:02:22;3.17;;;3.03;;
5951;SDS011;3001;42.622;23.194;2023-07-29T01:04:52;2.67;;;2.57;;
5951;SDS011;3001;42.622;23.194;2023-07-29T01:07:21;2.80;;;2.60;;
5951;SDS011;3001;42.622;23.194;2023-07-29T01:09:55;2.93;;;2.83;;
5951;SDS011;3001;42.622;23.194;2023-07-29T01:12:28;3.07;;;2.90;;
5951;SDS011;3001;42.622;23.194;2023-07-29T01:15:04;2.90;;;2.70;;
5951;SDS011;3001;42.622;23.194;2023-07-29T01:17:39;2.90;;;2.80;;
5951;SDS011;3001;42.622;23.194;2023-07-29T01:20:11;3.13;;;2.83;;
5951;SDS011;3001;42.622;23.194;2023-07-29T01:22:40;2.90;;;2.70;;
5951;SDS011;3001;42.622;23.194;2023-07-29T01:25:09;2.70;;;2.60;;
5951;SDS011;3001;42.622;23.194;2023-07-29T01:27:36;3.83;;;3.43;;
5951;SDS011;3001;42.622;23.194;2023-07-29T01:30:03;2.73;;;2.63;;
5951;SDS011;3001;42.622;23.194;2023-07-29T01:32:32;2.90;;;2.80;;
5951;SDS011;3001;42.622;23.194;2023-07-29T01:35:06;2.80;;;2.70;;
5951;SDS011;3001;42.622;23.194;2023-07-29T01:37:39;2.70;;;2.60;;
5951;SDS011;3001;42.622;23.194;2023-07-29T01:40:07;2.57;;;2.37;;
5951;SDS011;3001;42.622;23.194;2023-07-29T01:42:37;2.87;;;2.70;;
5951;SDS011;3001;42.622;23.194;2023-07-29T01:45:04;14.37;;;4.03;;
5951;SDS011;3001;42.622;23.194;2023-07-29T01:47:31;7.80;;;2.73;;
5951;SDS011;3001;42.622;23.194;2023-07-29T01:49:58;3.50;;;3.30;;
5951;SDS011;3001;42.622;23.194;2023-07-29T01:52:25;2.73;;;2.63;;
5951;SDS011;3001;42.622;23.194;2023-07-29T01:54:51;3.10;;;3.00;;
5951;SDS011;3001;42.622;23.194;2023-07-29T01:57:19;2.70;;;2.60;;
5951;SDS011;3001;42.622;23.194;2023-07-29T01:59:46;3.30;;;3.10;;
5951;SDS011;3001;42.622;23.194;2023-07-29T02:02:13;3.23;;;3.13;;
5951;SDS011;3001;42.622;23.194;2023-07-29T02:04:39;3.13;;;2.93;;
5951;SDS011;3001;42.622;23.194;2023-07-29T02:07:06;2.90;;;2.80;;
5951;SDS011;3001;42.622;23.194;2023-07-29T02:09:33;3.23;;;3.03;;
5951;SDS011;3001;42.622;23.194;2023-07-29T02:11:59;2.90;;;2.70;;
5951;SDS011;3001;42.622;23.194;2023-07-29T02:14:27;3.20;;;3.00;;
5951;SDS011;3001;42.622;23.194;2023-07-29T02:16:54;3.00;;;2.90;;
5951;SDS011;3001;42.622;23.194;2023-07-29T02:19:21;2.93;;;2.70;;
5951;SDS011;3001;42.622;23.194;2023-07-29T02:21:48;2.90;;;2.80;;
5951;SDS011;3001;42.622;23.194;2023-07-29T02:24:14;2.77;;;2.67;;
5951;SDS011;3001;42.622;23.194;2023-07-29T02:26:41;3.10;;;3.00;;
5951;SDS011;3001;42.622;23.194;2023-07-29T02:29:08;3.60;;;3.13;;
5951;SDS011;3001;42.622;23.194;2023-07-29T02:31:36;3.40;;;3.20;;
5951;SDS011;3001;42.622;23.194;2023-07-29T02:34:03;3.27;;;3.17;;
5951;SDS011;3001;42.622;23.194;2023-07-29T02:36:30;3.17;;;2.97;;
5951;SDS011;3001;42.622;23.194;2023-07-29T02:38:56;4.10;;;3.20;;
5951;SDS011;3001;42.622;23.194;2023-07-29T02:41:23;2.93;;;2.73;;
5951;SDS011;3001;42.622;23.194;2023-07-29T02:43:50;3.33;;;3.13;;
5951;SDS011;3001;42.622;23.194;2023-07-29T02:46:17;4.70;;;3.30;;
5951;SDS011;3001;42.622;23.194;2023-07-29T02:48:45;3.63;;;3.33;;
5951;SDS011;3001;42.622;23.194;2023-07-29T02:51:12;3.67;;;3.47;;
5951;SDS011;3001;42.622;23.194;2023-07-29T02:53:39;3.03;;;2.93;;
5951;SDS011;3001;42.622;23.194;2023-07-29T02:56:06;3.07;;;2.87;;
5951;SDS011;3001;42.622;23.194;2023-07-29T02:58:34;3.20;;;3.00;;
5951;SDS011;3001;42.622;23.194;2023-07-29T03:01:01;3.63;;;3.40;;
5951;SDS011;3001;42.622;23.194;2023-07-29T03:03:28;2.87;;;2.77;;
5951;SDS011;3001;42.622;23.194;2023-07-29T03:05:58;3.03;;;2.93;;
5951;SDS011;3001;42.622;23.194;2023-07-29T03:08:26;3.27;;;3.00;;
5951;SDS011;3001;42.622;23.194;2023-07-29T03:10:53;3.17;;;3.07;;
5951;SDS011;3001;42.622;23.194;2023-07-29T03:13:20;3.57;;;3.00;;
5951;SDS011;3001;42.622;23.194;2023-07-29T03:15:47;3.00;;;2.77;;
5951;SDS011;3001;42.622;23.194;2023-07-29T03:18:13;4.90;;;3.10;;
5951;SDS011;3001;42.622;23.194;2023-07-29T03:20:40;3.10;;;3.00;;
5951;SDS011;3001;42.622;23.194;2023-07-29T03:23:09;3.23;;;3.03;;
5951;SDS011;3001;42.622;23.194;2023-07-29T03:25:35;3.73;;;3.53;;
5951;SDS011;3001;42.622;23.194;2023-07-29T03:28:02;3.50;;;3.30;;
5951;SDS011;3001;42.622;23.194;2023-07-29T03:30:29;2.83;;;2.73;;
5951;SDS011;3001;42.622;23.194;2023-07-29T03:32:56;3.03;;;2.93;;
5951;SDS011;3001;42.622;23.194;2023-07-29T03:35:23;4.47;;;3.33;;
5951;SDS011;3001;42.622;23.194;2023-07-29T03:37:49;3.10;;;2.90;;
5951;SDS011;3001;42.622;23.194;2023-07-29T03:40:17;3.37;;;3.17;;
5951;SDS011;3001;42.622;23.194;2023-07-29T03:42:44;3.30;;;3.00;;
5951;SDS011;3001;42.622;23.194;2023-07-29T03:45:11;3.37;;;3.07;;
5951;SDS011;3001;42.622;23.194;2023-07-29T03:47:38;3.17;;;3.00;;
5951;SDS011;3001;42.622;23.194;2023-07-29T03:50:05;2.90;;;2.60;;
5951;SDS011;3001;42.622;23.194;2023-07-29T03:52:32;3.87;;;3.13;;
5951;SDS011;3001;42.622;23.194;2023-07-29T03:54:59;3.20;;;3.10;;
5951;SDS011;3001;42.622;23.194;2023-07-29T03:57:27;3.13;;;2.93;;
5951;SDS011;3001;42.622;23.194;2023-07-29T03:59:55;3.17;;;3.07;;
5951;SDS011;3001;42.622;23.194;2023-07-29T04:02:21;3.40;;;3.20;;
5951;SDS011;3001;42.622;23.194;2023-07-29T04:04:48;3.07;;;2.97;;
5951;SDS011;3001;42.622;23.194;2023-07-29T04:07:14;3.57;;;2.83;;
5951;SDS011;3001;42.622;23.194;2023-07-29T04:09:41;23.10;;;4.30;;
5951;SDS011;3001;42.622;23.194;2023-07-29T04:12:08;5.47;;;3.43;;
5951;SDS011;3001;42.622;23.194;2023-07-29T04:14:37;6.23;;;3.10;;
5951;SDS011;3001;42.622;23.194;2023-07-29T04:17:04;3.10;;;2.90;;
5951;SDS011;3001;42.622;23.194;2023-07-29T04:19:31;2.70;;;2.60;;
5951;SDS011;3001;42.622;23.194;2023-07-29T04:21:57;3.50;;;3.30;;
5951;SDS011;3001;42.622;23.194;2023-07-29T04:24:24;3.30;;;3.10;;
5951;SDS011;3001;42.622;23.194;2023-07-29T04:26:51;3.10;;;3.00;;
5951;SDS011;3001;42.622;23.194;2023-07-29T04:29:17;3.20;;;3.00;;
5951;SDS011;3001;42.622;23.194;2023-07-29T04:31:45;3.47;;;3.27;;
5951;SDS011;3001;42.622;23.194;2023-07-29T04:34:12;2.80;;;2.70;;
5951;SDS011;3001;42.622;23.194;2023-07-29T04:36:39;3.00;;;2.90;;
5951;SDS011;3001;42.622;23.194;2023-07-29T04:39:05;2.93;;;2.83;;
5951;SDS011;3001;42.622;23.194;2023-07-29T04:41:32;2.90;;;2.80;;
5951;SDS011;3001;42.622;23.194;2023-07-29T04:43:59;3.10;;;3.00;;
5951;SDS011;3001;42.622;23.194;2023-07-29T04:46:26;3.00;;;2.80;;
5951;SDS011;3001;42.622;23.194;2023-07-29T04:48:54;3.37;;;3.17;;
5951;SDS011;3001;42.622;23.194;2023-07-29T04:51:21;3.40;;;3.20;;
5951;SDS011;3001;42.622;23.194;2023-07-29T04:53:47;3.23;;;3.13;;
5951;SDS011;3001;42.622;23.194;2023-07-29T04:56:14;3.17;;;3.07;;
5951;SDS011;3001;42.622;23.194;2023-07-29T04:58:41;6.10;;;3.53;;
5951;SDS011;3001;42.622;23.194;2023-07-29T05:01:08;3.80;;;3.50;;
5951;SDS011;3001;42.622;23.194;2023-07-29T05:03:34;15.47;;;4.17;;
5951;SDS011;3001;42.622;23.194;2023-07-29T05:06:03;4.13;;;3.77;;
5951;SDS011;3001;42.622;23.194;2023-07-29T05:08:30;7.60;;;3.80;;
5951;SDS011;3001;42.622;23.194;2023-07-29T05:10:56;3.37;;;3.10;;
5951;SDS011;3001;42.622;23.194;2023-07-29T05:13:23;3.50;;;3.30;;
5951;SDS011;3001;42.622;23.194;2023-07-29T05:15:50;9.03;;;3.60;;
5951;SDS011;3001;42.622;23.194;2023-07-29T05:18:17;3.87;;;3.40;;
5951;SDS011;3001;42.622;23.194;2023-07-29T05:20:44;6.27;;;3.47;;
5951;SDS011;3001;42.622;23.194;2023-07-29T05:23:12;4.07;;;3.17;;
5951;SDS011;3001;42.622;23.194;2023-07-29T05:25:38;3.30;;;3.20;;
5951;SDS011;3001;42.622;23.194;2023-07-29T05:28:05;3.77;;;3.53;;
5951;SDS011;3001;42.622;23.194;2023-07-29T05:30:32;3.90;;;3.50;;
5951;SDS011;3001;42.622;23.194;2023-07-29T05:33:02;3.20;;;3.10;;
5951;SDS011;3001;42.622;23.194;2023-07-29T05:35:29;3.17;;;3.07;;
5951;SDS011;3001;42.622;23.194;2023-07-29T05:37:56;4.03;;;3.83;;
5951;SDS011;3001;42.622;23.194;2023-07-29T05:40:24;3.33;;;3.03;;
5951;SDS011;3001;42.622;23.194;2023-07-29T05:42:50;4.60;;;4.17;;
5951;SDS011;3001;42.622;23.194;2023-07-29T05:45:17;3.67;;;3.37;;
5951;SDS011;3001;42.622;23.194;2023-07-29T05:47:44;6.63;;;3.23;;
5951;SDS011;3001;42.622;23.194;2023-07-29T05:50:10;4.23;;;3.80;;
5951;SDS011;3001;42.622;23.194;2023-07-29T05:52:37;13.70;;;4.23;;
5951;SDS011;3001;42.622;23.194;2023-07-29T05:55:04;4.00;;;3.10;;
5951;SDS011;3001;42.622;23.194;2023-07-29T05:57:32;3.57;;;3.43;;
5951;SDS011;3001;42.622;23.194;2023-07-29T05:59:59;3.20;;;3.10;;
5951;SDS011;3001;42.622;23.194;2023-07-29T06:02:26;4.07;;;3.60;;
5951;SDS011;3001;42.622;23.194;2023-07-29T06:04:53;3.43;;;3.23;;
5951;SDS011;3001;42.622;23.194;2023-07-29T06:07:19;3.90;;;3.70;;
5951;SDS011;3001;42.622;23.194;2023-07-29T06:09:46;3.63;;;3.43;;
5951;SDS011;3001;42.622;23.194;2023-07-29T06:12:13;3.63;;;3.43;;
5951;SDS011;3001;42.622;23.194;2023-07-29T06:14:41;4.13;;;3.93;;
5951;SDS011;3001;42.622;23.194;2023-07-29T06:17:08;3.73;;;3.53;;
5951;SDS011;3001;42.622;23.194;2023-07-29T06:19:36;3.67;;;3.37;;
5951;SDS011;3001;42.622;23.194;2023-07-29T06:22:03;3.83;;;3.50;;
5951;SDS011;3001;42.622;23.194;2023-07-29T06:24:31;5.07;;;4.20;;
5951;SDS011;3001;42.622;23.194;2023-07-29T06:26:58;3.83;;;3.63;;
5951;SDS011;3001;42.622;23.194;2023-07-29T06:29:25;3.50;;;3.30;;
5951;SDS011;3001;42.622;23.194;2023-07-29T06:31:53;4.00;;;3.27;;
5951;SDS011;3001;42.622;23.194;2023-07-29T06:34:20;3.50;;;3.20;;
5951;SDS011;3001;42.622;23.194;2023-07-29T06:36:46;4.53;;;3.60;;
5951;SDS011;3001;42.622;23.194;2023-07-29T06:39:13;3.63;;;3.33;;
5951;SDS011;3001;42.622;23.194;2023-07-29T06:41:40;3.57;;;3.37;;
5951;SDS011;3001;42.622;23.194;2023-07-29T06:44:07;3.27;;;3.17;;
5951;SDS011;3001;42.622;23.194;2023-07-29T06:46:33;3.33;;;3.23;;
5951;SDS011;3001;42.622;23.194;2023-07-29T06:49:01;3.27;;;3.17;;
5951;SDS011;3001;42.622;23.194;2023-07-29T06:51:28;3.30;;;3.03;;
5951;SDS011;3001;42.622;23.194;2023-07-29T06:53:57;3.30;;;3.10;;
5951;SDS011;3001;42.622;23.194;2023-07-29T06:56:24;2.93;;;2.83;;
5951;SDS011;3001;42.622;23.194;2023-07-29T06:58:50;4.43;;;3.80;;
5951;SDS011;3001;42.622;23.194;2023-07-29T07:01:17;3.50;;;3.40;;
5951;SDS011;3001;42.622;23.194;2023-07-29T07:03:44;3.60;;;3.30;;
5951;SDS011;3001;42.622;23.194;2023-07-29T07:06:12;4.27;;;3.97;;
5951;SDS011;3001;42.622;23.194;2023-07-29T07:08:39;3.63;;;3.50;;
5951;SDS011;3001;42.622;23.194;2023-07-29T07:11:06;3.73;;;3.53;;
5951;SDS011;3001;42.622;23.194;2023-07-29T07:13:33;5.00;;;4.30;;
5951;SDS011;3001;42.622;23.194;2023-07-29T07:16:00;3.90;;;3.70;;
5951;SDS011;3001;42.622;23.194;2023-07-29T07:18:27;4.10;;;3.87;;
5951;SDS011;3001;42.622;23.194;2023-07-29T07:20:53;3.80;;;3.60;;
5951;SDS011;3001;42.622;23.194;2023-07-29T07:23:21;3.83;;;3.57;;
5951;SDS011;3001;42.622;23.194;2023-07-29T07:25:48;4.17;;;3.97;;
5951;SDS011;3001;42.622;23.194;2023-07-29T07:28:15;4.43;;;4.13;;
5951;SDS011;3001;42.622;23.194;2023-07-29T07:30:41;3.77;;;3.43;;
5951;SDS011;3001;42.622;23.194;2023-07-29T07:33:08;3.53;;;3.33;;
5951;SDS011;3001;42.622;23.194;2023-07-29T07:35:35;3.67;;;3.40;;
5951;SDS011;3001;42.622;23.194;2023-07-29T07:38:02;3.37;;;3.27;;
5951;SDS011;3001;42.622;23.194;2023-07-29T07:40:30;3.90;;;3.27;;
5951;SDS011;3001;42.622;23.194;2023-07-29T07:42:57;3.53;;;3.33;;
5951;SDS011;3001;42.622;23.194;2023-07-29T07:45:24;3.60;;;3.30;;
5951;SDS011;3001;42.622;23.194;2023-07-29T07:47:51;3.57;;;3.47;;
5951;SDS011;3001;42.622;23.194;2023-07-29T07:50:18;3.23;;;3.10;;
5951;SDS011;3001;42.622;23.194;2023-07-29T07:52:45;3.53;;;3.33;;
5951;SDS011;3001;42.622;23.194;2023-07-29T07:55:12;3.90;;;3.70;;
5951;SDS011;3001;42.622;23.194;2023-07-29T07:57:40;3.30;;;3.20;;
5951;SDS011;3001;42.622;23.194;2023-07-29T08:00:07;4.25;;;3.45;;
5951;SDS011;3001;42.622;23.194;2023-07-29T08:02:35;3.45;;;3.30;;
5951;SDS011;3001;42.622;23.194;2023-07-29T08:05:02;4.87;;;3.20;;
5951;SDS011;3001;42.622;23.194;2023-07-29T08:07:29;3.70;;;2.90;;
5951;SDS011;3001;42.622;23.194;2023-07-29T08:09:56;3.28;;;3.00;;
5951;SDS011;3001;42.622;23.194;2023-07-29T08:12:22;2.78;;;2.67;;
5951;SDS011;3001;42.622;23.194;2023-07-29T08:14:50;3.13;;;2.92;;
5951;SDS011;3001;42.622;23.194;2023-07-29T08:17:17;3.25;;;2.50;;
5951;SDS011;3001;42.622;23.194;2023-07-29T08:19:44;2.40;;;2.30;;
5951;SDS011;3001;42.622;23.194;2023-07-29T08:22:10;2.92;;;2.80;;
5951;SDS011;3001;42.622;23.194;2023-07-29T08:24:37;2.88;;;2.75;;
5951;SDS011;3001;42.622;23.194;2023-07-29T08:27:04;2.55;;;2.45;;
5951;SDS011;3001;42.622;23.194;2023-07-29T08:29:31;2.65;;;2.50;;
5951;SDS011;3001;42.622;23.194;2023-07-29T08:31:59;2.70;;;2.60;;
5951;SDS011;3001;42.622;23.194;2023-07-29T08:34:26;4.30;;;2.67;;
5951;SDS011;3001;42.622;23.194;2023-07-29T08:36:53;2.40;;;2.30;;
5951;SDS011;3001;42.622;23.194;2023-07-29T08:39:19;2.83;;;2.63;;
5951;SDS011;3001;42.622;23.194;2023-07-29T08:41:49;2.30;;;2.20;;
5951;SDS011;3001;42.622;23.194;2023-07-29T08:44:21;2.72;;;2.17;;
5951;SDS011;3001;42.622;23.194;2023-07-29T08:46:48;1.98;;;1.88;;
5951;SDS011;3001;42.622;23.194;2023-07-29T08:49:17;2.05;;;1.95;;
5951;SDS011;3001;42.622;23.194;2023-07-29T08:51:45;2.50;;;2.30;;
5951;SDS011;3001;42.622;23.194;2023-07-29T08:54:13;1.90;;;1.80;;
5951;SDS011;3001;42.622;23.194;2023-07-29T08:56:40;2.08;;;1.98;;
5951;SDS011;3001;42.622;23.194;2023-07-29T08:59:08;1.90;;;1.80;;
5951;SDS011;3001;42.622;23.194;2023-07-29T09:01:35;2.03;;;1.92;;
5951;SDS011;3001;42.622;23.194;2023-07-29T09:04:02;2.10;;;2.00;;
5951;SDS011;3001;42.622;23.194;2023-07-29T09:06:31;2.10;;;2.00;;
5951;SDS011;3001;42.622;23.194;2023-07-29T09:08:58;2.03;;;1.80;;
5951;SDS011;3001;42.622;23.194;2023-07-29T09:11:25;2.10;;;2.00;;
5951;SDS011;3001;42.622;23.194;2023-07-29T09:13:53;1.90;;;1.80;;
5951;SDS011;3001;42.622;23.194;2023-07-29T09:16:20;1.55;;;1.55;;
5951;SDS011;3001;42.622;23.194;2023-07-29T09:18:48;1.88;;;1.85;;
5951;SDS011;3001;42.622;23.194;2023-07-29T09:21:15;2.30;;;2.20;;
5951;SDS011;3001;42.622;23.194;2023-07-29T09:23:44;2.13;;;2.03;;
5951;SDS011;3001;42.622;23.194;2023-07-29T09:26:11;1.83;;;1.83;;
5951;SDS011;3001;42.622;23.194;2023-07-29T09:28:38;1.90;;;1.80;;
5951;SDS011;3001;42.622;23.194;2023-07-29T09:31:06;2.30;;;2.20;;
5951;SDS011;3001;42.622;23.194;2023-07-29T09:33:33;2.15;;;2.05;;
5951;SDS011;3001;42.622;23.194;2023-07-29T09:36:01;2.00;;;1.90;;
5951;SDS011;3001;42.622;23.194;2023-07-29T09:38:29;2.08;;;2.08;;
5951;SDS011;3001;42.622;23.194;2023-07-29T09:40:57;2.00;;;1.90;;
5951;SDS011;3001;42.622;23.194;2023-07-29T09:43:28;2.20;;;2.10;;
5951;SDS011;3001;42.622;23.194;2023-07-29T09:45:59;2.00;;;1.90;;
5951;SDS011;3001;42.622;23.194;2023-07-29T09:48:26;1.70;;;1.60;;
5951;SDS011;3001;42.622;23.194;2023-07-29T09:50:53;2.13;;;1.83;;
5951;SDS011;3001;42.622;23.194;2023-07-29T09:53:20;2.03;;;1.92;;
5951;SDS011;3001;42.622;23.194;2023-07-29T09:55:47;1.63;;;1.52;;
5951;SDS011;3001;42.622;23.194;2023-07-29T09:58:17;1.95;;;1.40;;
5951;SDS011;3001;42.622;23.194;2023-07-29T10:00:51;1.85;;;1.80;;
5951;SDS011;3001;42.622;23.194;2023-07-29T10:03:18;1.38;;;1.27;;
5951;SDS011;3001;42.622;23.194;2023-07-29T10:05:46;1.33;;;1.33;;
5951;SDS011;3001;42.622;23.194;2023-07-29T10:08:13;0.90;;;0.90;;
5951;SDS011;3001;42.622;23.194;2023-07-29T10:10:41;1.00;;;1.00;;
5951;SDS011;3001;42.622;23.194;2023-07-29T10:13:08;0.90;;;0.90;;
5951;SDS011;3001;42.622;23.194;2023-07-29T10:15:37;2.25;;;1.13;;
5951;SDS011;3001;42.622;23.194;2023-07-29T10:18:04;1.80;;;1.30;;
5951;SDS011;3001;42.622;23.194;2023-07-29T10:20:31;1.60;;;1.60;;
5951;SDS011;3001;42.622;23.194;2023-07-29T10:23:00;2.15;;;1.33;;
5951;SDS011;3001;42.622;23.194;2023-07-29T10:25:30;1.90;;;1.80;;
5951;SDS011;3001;42.622;23.194;2023-07-29T10:28:04;1.85;;;1.85;;
5951;SDS011;3001;42.622;23.194;2023-07-29T10:30:32;2.00;;;1.90;;
5951;SDS011;3001;42.622;23.194;2023-07-29T10:33:01;1.90;;;1.90;;
5951;SDS011;3001;42.622;23.194;2023-07-29T10:35:28;2.20;;;2.08;;
5951;SDS011;3001;42.622;23.194;2023-07-29T10:37:56;1.60;;;1.50;;
5951;SDS011;3001;42.622;23.194;2023-07-29T10:40:23;2.05;;;1.73;;
5951;SDS011;3001;42.622;23.194;2023-07-29T10:42:59;1.77;;;1.77;;
5951;SDS011;3001;42.622;23.194;2023-07-29T10:45:28;1.65;;;1.65;;
5951;SDS011;3001;42.622;23.194;2023-07-29T10:48:06;2.03;;;1.63;;
5951;SDS011;3001;42.622;23.194;2023-07-29T10:50:33;2.78;;;1.55;;
5951;SDS011;3001;42.622;23.194;2023-07-29T10:53:00;2.25;;;1.55;;
5951;SDS011;3001;42.622;23.194;2023-07-29T10:55:28;1.70;;;1.60;;
5951;SDS011;3001;42.622;23.194;2023-07-29T10:58:05;1.55;;;1.40;;
5951;SDS011;3001;42.622;23.194;2023-07-29T11:00:38;1.60;;;1.60;;
5951;SDS011;3001;42.622;23.194;2023-07-29T11:03:08;1.42;;;1.42;;
5951;SDS011;3001;42.622;23.194;2023-07-29T11:05:42;1.85;;;1.65;;
5951;SDS011;3001;42.622;23.194;2023-07-29T11:08:17;2.00;;;1.90;;
5951;SDS011;3001;42.622;23.194;2023-07-29T11:10:58;1.60;;;1.50;;
5951;SDS011;3001;42.622;23.194;2023-07-29T11:13:28;1.50;;;1.50;;
5951;SDS011;3001;42.622;23.194;2023-07-29T11:15:55;1.52;;;1.42;;
5951;SDS011;3001;42.622;23.194;2023-07-29T11:18:25;1.20;;;1.20;;
5951;SDS011;3001;42.622;23.194;2023-07-29T11:20:53;1.50;;;1.40;;
5951;SDS011;3001;42.622;23.194;2023-07-29T11:23:20;1.55;;;1.45;;
5951;SDS011;3001;42.622;23.194;2023-07-29T11:25:54;1.50;;;1.40;;
5951;SDS011;3001;42.622;23.194;2023-07-29T11:28:20;1.30;;;1.30;;
5951;SDS011;3001;42.622;23.194;2023-07-29T11:30:49;1.40;;;1.40;;
5951;SDS011;3001;42.622;23.194;2023-07-29T11:33:17;1.88;;;1.33;;
5951;SDS011;3001;42.622;23.194;2023-07-29T11:35:45;2.85;;;1.75;;
5951;SDS011;3001;42.622;23.194;2023-07-29T11:38:14;1.08;;;1.08;;
5951;SDS011;3001;42.622;23.194;2023-07-29T11:40:41;1.40;;;1.40;;
5951;SDS011;3001;42.622;23.194;2023-07-29T11:43:08;1.48;;;1.38;;
5951;SDS011;3001;42.622;23.194;2023-07-29T11:45:35;1.38;;;1.38;;
5951;SDS011;3001;42.622;23.194;2023-07-29T11:48:02;1.50;;;1.50;;
5951;SDS011;3001;42.622;23.194;2023-07-29T11:50:29;1.73;;;1.63;;
5951;SDS011;3001;42.622;23.194;2023-07-29T11:52:57;2.05;;;1.48;;
5951;SDS011;3001;42.622;23.194;2023-07-29T11:55:24;1.55;;;1.45;;
5951;SDS011;3001;42.622;23.194;2023-07-29T11:57:51;2.05;;;1.60;;
5951;SDS011;3001;42.622;23.194;2023-07-29T12:00:18;3.80;;;1.70;;
5951;SDS011;3001;42.622;23.194;2023-07-29T12:02:46;1.08;;;1.08;;
5951;SDS011;3001;42.622;23.194;2023-07-29T12:05:14;1.65;;;1.65;;
5951;SDS011;3001;42.622;23.194;2023-07-29T12:07:42;1.20;;;1.20;;
5951;SDS011;3001;42.622;23.194;2023-07-29T12:10:11;1.30;;;1.30;;
5951;SDS011;3001;42.622;23.194;2023-07-29T12:12:40;1.40;;;1.40;;
5951;SDS011;3001;42.622;23.194;2023-07-29T12:15:11;1.58;;;1.58;;
5951;SDS011;3001;42.622;23.194;2023-07-29T12:17:39;1.08;;;1.08;;
5951;SDS011;3001;42.622;23.194;2023-07-29T12:20:08;1.45;;;1.45;;
5951;SDS011;3001;42.622;23.194;2023-07-29T12:22:35;1.33;;;1.27;;
5951;SDS011;3001;42.622;23.194;2023-07-29T12:25:02;1.33;;;1.25;;
5951;SDS011;3001;42.622;23.194;2023-07-29T12:27:30;1.50;;;1.40;;
5951;SDS011;3001;42.622;23.194;2023-07-29T12:29:57;1.48;;;1.38;;
5951;SDS011;3001;42.622;23.194;2023-07-29T12:32:25;1.20;;;1.20;;
5951;SDS011;3001;42.622;23.194;2023-07-29T12:34:53;1.50;;;1.50;;
5951;SDS011;3001;42.622;23.194;2023-07-29T12:37:20;1.05;;;1.05;;
5951;SDS011;3001;42.622;23.194;2023-07-29T12:39:56;1.20;;;1.20;;
5951;SDS011;3001;42.622;23.194;2023-07-29T12:42:23;1.20;;;1.20;;
5951;SDS011;3001;42.622;23.194;2023-07-29T12:44:51;1.52;;;1.52;;
5951;SDS011;3001;42.622;23.194;2023-07-29T12:47:18;1.25;;;1.25;;
5951;SDS011;3001;42.622;23.194;2023-07-29T12:49:44;2.20;;;1.90;;
5951;SDS011;3001;42.622;23.194;2023-07-29T12:52:11;1.33;;;1.30;;
5951;SDS011;3001;42.622;23.194;2023-07-29T12:54:38;1.55;;;1.55;;
5951;SDS011;3001;42.622;23.194;2023-07-29T12:57:05;1.40;;;1.40;;
5951;SDS011;3001;42.622;23.194;2023-07-29T12:59:32;1.08;;;1.08;;
5951;SDS011;3001;42.622;23.194;2023-07-29T13:02:00;1.67;;;1.67;;
5951;SDS011;3001;42.622;23.194;2023-07-29T13:04:27;1.45;;;1.45;;
5951;SDS011;3001;42.622;23.194;2023-07-29T13:06:53;1.38;;;1.38;;
5951;SDS011;3001;42.622;23.194;2023-07-29T13:09:21;1.23;;;1.23;;
5951;SDS011;3001;42.622;23.194;2023-07-29T13:11:48;1.50;;;1.50;;
5951;SDS011;3001;42.622;23.194;2023-07-29T13:14:15;1.63;;;1.63;;
5951;SDS011;3001;42.622;23.194;2023-07-29T13:16:41;1.58;;;1.30;;
5951;SDS011;3001;42.622;23.194;2023-07-29T13:19:09;1.50;;;1.50;;
5951;SDS011;3001;42.622;23.194;2023-07-29T13:21:36;1.48;;;1.48;;
5951;SDS011;3001;42.622;23.194;2023-07-29T13:24:03;1.88;;;1.77;;
5951;SDS011;3001;42.622;23.194;2023-07-29T13:26:30;2.15;;;1.35;;
5951;SDS011;3001;42.622;23.194;2023-07-29T13:28:56;5.57;;;5.18;;
5951;SDS011;3001;42.622;23.194;2023-07-29T13:31:23;1.77;;;1.67;;
5951;SDS011;3001;42.622;23.194;2023-07-29T13:33:50;1.60;;;1.60;;
5951;SDS011;3001;42.622;23.194;2023-07-29T13:36:18;1.85;;;1.75;;
5951;SDS011;3001;42.622;23.194;2023-07-29T13:38:44;2.13;;;1.50;;
5951;SDS011;3001;42.622;23.194;2023-07-29T13:41:11;1.95;;;1.85;;
5951;SDS011;3001;42.622;23.194;2023-07-29T13:43:38;1.42;;;1.42;;
5951;SDS011;3001;42.622;23.194;2023-07-29T13:46:04;2.70;;;2.60;;
5951;SDS011;3001;42.622;23.194;2023-07-29T13:48:31;1.83;;;1.83;;
5951;SDS011;3001;42.622;23.194;2023-07-29T13:51:00;1.67;;;1.65;;
5951;SDS011;3001;42.622;23.194;2023-07-29T13:53:28;1.80;;;1.70;;
5951;SDS011;3001;42.622;23.194;2023-07-29T13:55:55;1.95;;;1.95;;
5951;SDS011;3001;42.622;23.194;2023-07-29T13:58:22;13.38;;;12.27;;
5951;SDS011;3001;42.622;23.194;2023-07-29T14:00:48;14.93;;;12.57;;
5951;SDS011;3001;42.622;23.194;2023-07-29T14:03:15;2.38;;;2.28;;
5951;SDS011;3001;42.622;23.194;2023-07-29T14:05:42;1.30;;;1.30;;
5951;SDS011;3001;42.622;23.194;2023-07-29T14:08:08;1.92;;;1.83;;
5951;SDS011;3001;42.622;23.194;2023-07-29T14:10:36;1.20;;;1.20;;
5951;SDS011;3001;42.622;23.194;2023-07-29T14:13:03;1.63;;;1.60;;
5951;SDS011;3001;42.622;23.194;2023-07-29T14:15:30;1.85;;;1.58;;
5951;SDS011;3001;42.622;23.194;2023-07-29T14:17:57;1.40;;;1.40;;
5951;SDS011;3001;42.622;23.194;2023-07-29T14:20:24;1.30;;;1.30;;
5951;SDS011;3001;42.622;23.194;2023-07-29T14:22:51;1.40;;;1.40;;
5951;SDS011;3001;42.622;23.194;2023-07-29T14:25:18;1.50;;;1.50;;
5951;SDS011;3001;42.622;23.194;2023-07-29T14:27:46;5.72;;;1.88;;
5951;SDS011;3001;42.622;23.194;2023-07-29T14:30:12;1.90;;;1.80;;
5951;SDS011;3001;42.622;23.194;2023-07-29T14:32:39;6.65;;;6.18;;
5951;SDS011;3001;42.622;23.194;2023-07-29T14:35:06;6.90;;;6.40;;
5951;SDS011;3001;42.622;23.194;2023-07-29T14:37:33;2.85;;;2.75;;
5951;SDS011;3001;42.622;23.194;2023-07-29T14:40:00;4.03;;;3.83;;
5951;SDS011;3001;42.622;23.194;2023-07-29T14:42:27;3.03;;;2.78;;
5951;SDS011;3001;42.622;23.194;2023-07-29T14:44:55;2.67;;;2.33;;
5951;SDS011;3001;42.622;23.194;2023-07-29T14:47:22;2.22;;;2.13;;
5951;SDS011;3001;42.622;23.194;2023-07-29T14:49:49;2.28;;;2.05;;
5951;SDS011;3001;42.622;23.194;2023-07-29T14:52:16;2.85;;;2.05;;
5951;SDS011;3001;42.622;23.194;2023-07-29T14:54:42;2.05;;;1.92;;
5951;SDS011;3001;42.622;23.194;2023-07-29T14:57:09;1.60;;;1.60;;
5951;SDS011;3001;42.622;23.194;2023-07-29T14:59:36;2.28;;;2.17;;
5951;SDS011;3001;42.622;23.194;2023-07-29T15:02:05;2.28;;;2.00;;